sensor_id;sensor_type;location;lat;lon;timestamp;P1;durP1;ratioP1;P2;durP2;ratioP2
10550;SDS011;5324;50.684;3.862;2023-05-28T00:00:44;18.23;;;6.57;;
10550;SDS011;5324;50.684;3.862;2023-05-28T00:03:10;14.33;;;6.47;;
10550;SDS011;5324;50.684;3.862;2023-05-28T00:05:37;16.97;;;6.77;;
10550;SDS011;5324;50.684;3.862;2023-05-28T00:08:03;12.73;;;6.83;;
10550;SDS011;5324;50.684;3.862;2023-05-28T00:10:29;17.10;;;6.63;;
10550;SDS011;5324;50.684;3.862;2023-05-28T00:12:56;14.10;;;7.93;;
10550;SDS011;5324;50.684;3.862;2023-05-28T00:15:22;11.93;;;6.63;;
10550;SDS011;5324;50.684;3.862;2023-05-28T00:17:48;12.18;;;6.55;;
10550;SDS011;5324;50.684;3.862;2023-05-28T00:20:17;15.23;;;7.43;;
10550;SDS011;5324;50.684;3.862;2023-05-28T00:22:44;11.17;;;6.70;;
10550;SDS011;5324;50.684;3.862;2023-05-28T00:25:10;10.20;;;6.57;;
10550;SDS011;5324;50.684;3.862;2023-05-28T00:27:37;11.50;;;6.80;;
10550;SDS011;5324;50.684;3.862;2023-05-28T00:30:03;13.40;;;6.87;;
10550;SDS011;5324;50.684;3.862;2023-05-28T00:32:29;11.20;;;6.60;;
10550;SDS011;5324;50.684;3.862;2023-05-28T00:34:55;13.93;;;6.43;;
10550;SDS011;5324;50.684;3.862;2023-05-28T00:37:21;14.43;;;7.27;;
10550;SDS011;5324;50.684;3.862;2023-05-28T00:39:47;15.43;;;7.27;;
10550;SDS011;5324;50.684;3.862;2023-05-28T00:42:13;13.57;;;7.10;;
10550;SDS011;5324;50.684;3.862;2023-05-28T00:44:39;11.67;;;7.23;;
10550;SDS011;5324;50.684;3.862;2023-05-28T00:47:06;14.97;;;7.67;;
10550;SDS011;5324;50.684;3.862;2023-05-28T00:49:32;18.00;;;7.17;;
10550;SDS011;5324;50.684;3.862;2023-05-28T00:51:58;18.07;;;7.10;;
10550;SDS011;5324;50.684;3.862;2023-05-28T00:54:25;11.47;;;7.57;;
10550;SDS011;5324;50.684;3.862;2023-05-28T00:56:54;12.37;;;6.90;;
10550;SDS011;5324;50.684;3.862;2023-05-28T00:59:23;14.60;;;7.27;;
10550;SDS011;5324;50.684;3.862;2023-05-28T01:01:49;13.80;;;7.30;;
10550;SDS011;5324;50.684;3.862;2023-05-28T01:04:15;15.37;;;7.13;;
10550;SDS011;5324;50.684;3.862;2023-05-28T01:06:42;14.00;;;7.63;;
10550;SDS011;5324;50.684;3.862;2023-05-28T01:09:08;12.67;;;6.90;;
10550;SDS011;5324;50.684;3.862;2023-05-28T01:11:34;11.40;;;7.10;;
10550;SDS011;5324;50.684;3.862;2023-05-28T01:14:02;13.73;;;7.80;;
10550;SDS011;5324;50.684;3.862;2023-05-28T01:16:28;13.43;;;7.23;;
10550;SDS011;5324;50.684;3.862;2023-05-28T01:18:55;14.93;;;7.33;;
10550;SDS011;5324;50.684;3.862;2023-05-28T01:21:22;15.27;;;7.63;;
10550;SDS011;5324;50.684;3.862;2023-05-28T01:23:48;19.30;;;8.30;;
10550;SDS011;5324;50.684;3.862;2023-05-28T01:26:15;13.67;;;8.00;;
10550;SDS011;5324;50.684;3.862;2023-05-28T01:28:45;17.27;;;8.17;;
10550;SDS011;5324;50.684;3.862;2023-05-28T01:31:14;15.77;;;8.03;;
10550;SDS011;5324;50.684;3.862;2023-05-28T01:33:41;16.10;;;8.80;;
10550;SDS011;5324;50.684;3.862;2023-05-28T01:36:12;14.80;;;8.53;;
10550;SDS011;5324;50.684;3.862;2023-05-28T01:38:39;18.20;;;8.10;;
10550;SDS011;5324;50.684;3.862;2023-05-28T01:41:08;14.40;;;8.73;;
10550;SDS011;5324;50.684;3.862;2023-05-28T01:43:35;17.30;;;7.70;;
10550;SDS011;5324;50.684;3.862;2023-05-28T01:46:01;16.20;;;7.60;;
10550;SDS011;5324;50.684;3.862;2023-05-28T01:48:27;12.73;;;8.43;;
10550;SDS011;5324;50.684;3.862;2023-05-28T01:50:54;12.77;;;8.27;;
10550;SDS011;5324;50.684;3.862;2023-05-28T01:53:20;14.57;;;8.63;;
10550;SDS011;5324;50.684;3.862;2023-05-28T01:55:46;18.13;;;10.03;;
10550;SDS011;5324;50.684;3.862;2023-05-28T01:58:12;19.50;;;9.77;;
10550;SDS011;5324;50.684;3.862;2023-05-28T02:00:41;18.00;;;8.60;;
10550;SDS011;5324;50.684;3.862;2023-05-28T02:03:08;15.90;;;8.37;;
10550;SDS011;5324;50.684;3.862;2023-05-28T02:05:36;18.57;;;8.63;;
10550;SDS011;5324;50.684;3.862;2023-05-28T02:08:02;17.27;;;8.67;;
10550;SDS011;5324;50.684;3.862;2023-05-28T02:10:28;24.33;;;9.27;;
10550;SDS011;5324;50.684;3.862;2023-05-28T02:12:54;15.63;;;8.90;;
10550;SDS011;5324;50.684;3.862;2023-05-28T02:15:20;16.10;;;8.93;;
10550;SDS011;5324;50.684;3.862;2023-05-28T02:17:47;15.00;;;9.57;;
10550;SDS011;5324;50.684;3.862;2023-05-28T02:20:13;20.10;;;9.77;;
10550;SDS011;5324;50.684;3.862;2023-05-28T02:22:39;17.40;;;9.27;;
10550;SDS011;5324;50.684;3.862;2023-05-28T02:25:05;17.53;;;9.30;;
10550;SDS011;5324;50.684;3.862;2023-05-28T02:27:31;15.30;;;9.53;;
10550;SDS011;5324;50.684;3.862;2023-05-28T02:29:57;18.23;;;9.53;;
10550;SDS011;5324;50.684;3.862;2023-05-28T02:32:23;17.60;;;9.67;;
10550;SDS011;5324;50.684;3.862;2023-05-28T02:34:49;19.80;;;9.27;;
10550;SDS011;5324;50.684;3.862;2023-05-28T02:37:15;19.73;;;8.90;;
10550;SDS011;5324;50.684;3.862;2023-05-28T02:39:41;20.67;;;9.47;;
10550;SDS011;5324;50.684;3.862;2023-05-28T02:42:07;15.47;;;8.83;;
10550;SDS011;5324;50.684;3.862;2023-05-28T02:44:33;17.93;;;9.03;;
10550;SDS011;5324;50.684;3.862;2023-05-28T02:46:59;17.17;;;9.10;;
10550;SDS011;5324;50.684;3.862;2023-05-28T02:49:26;12.93;;;8.20;;
10550;SDS011;5324;50.684;3.862;2023-05-28T02:51:51;16.03;;;9.07;;
10550;SDS011;5324;50.684;3.862;2023-05-28T02:54:17;13.23;;;8.77;;
10550;SDS011;5324;50.684;3.862;2023-05-28T02:56:43;16.90;;;8.73;;
10550;SDS011;5324;50.684;3.862;2023-05-28T02:59:10;18.30;;;8.53;;
10550;SDS011;5324;50.684;3.862;2023-05-28T03:01:36;15.00;;;8.73;;
10550;SDS011;5324;50.684;3.862;2023-05-28T03:04:02;14.80;;;9.37;;
10550;SDS011;5324;50.684;3.862;2023-05-28T03:06:28;18.23;;;9.30;;
10550;SDS011;5324;50.684;3.862;2023-05-28T03:08:54;13.00;;;8.70;;
10550;SDS011;5324;50.684;3.862;2023-05-28T03:11:20;15.77;;;9.17;;
10550;SDS011;5324;50.684;3.862;2023-05-28T03:13:46;18.47;;;9.37;;
10550;SDS011;5324;50.684;3.862;2023-05-28T03:16:12;24.03;;;9.47;;
10550;SDS011;5324;50.684;3.862;2023-05-28T03:18:38;15.03;;;8.77;;
10550;SDS011;5324;50.684;3.862;2023-05-28T03:21:04;18.53;;;10.20;;
10550;SDS011;5324;50.684;3.862;2023-05-28T03:23:30;17.03;;;9.80;;
10550;SDS011;5324;50.684;3.862;2023-05-28T03:25:56;18.10;;;9.87;;
10550;SDS011;5324;50.684;3.862;2023-05-28T03:28:22;16.03;;;9.17;;
10550;SDS011;5324;50.684;3.862;2023-05-28T03:30:48;16.33;;;10.43;;
10550;SDS011;5324;50.684;3.862;2023-05-28T03:33:14;20.43;;;9.87;;
10550;SDS011;5324;50.684;3.862;2023-05-28T03:35:40;20.07;;;10.70;;
10550;SDS011;5324;50.684;3.862;2023-05-28T03:38:06;20.00;;;9.83;;
10550;SDS011;5324;50.684;3.862;2023-05-28T03:40:32;17.07;;;10.27;;
10550;SDS011;5324;50.684;3.862;2023-05-28T03:42:58;24.93;;;11.10;;
10550;SDS011;5324;50.684;3.862;2023-05-28T03:45:24;15.63;;;9.77;;
10550;SDS011;5324;50.684;3.862;2023-05-28T03:47:50;18.47;;;10.30;;
10550;SDS011;5324;50.684;3.862;2023-05-28T03:50:16;17.37;;;10.93;;
10550;SDS011;5324;50.684;3.862;2023-05-28T03:52:42;16.73;;;10.40;;
10550;SDS011;5324;50.684;3.862;2023-05-28T03:55:08;19.80;;;10.53;;
10550;SDS011;5324;50.684;3.862;2023-05-28T03:57:34;24.50;;;10.47;;
10550;SDS011;5324;50.684;3.862;2023-05-28T04:00:01;17.23;;;10.60;;
10550;SDS011;5324;50.684;3.862;2023-05-28T04:02:27;16.53;;;9.40;;
10550;SDS011;5324;50.684;3.862;2023-05-28T04:04:53;17.07;;;9.47;;
10550;SDS011;5324;50.684;3.862;2023-05-28T04:07:19;16.50;;;9.77;;
10550;SDS011;5324;50.684;3.862;2023-05-28T04:09:46;20.13;;;11.37;;
10550;SDS011;5324;50.684;3.862;2023-05-28T04:12:12;23.23;;;10.33;;
10550;SDS011;5324;50.684;3.862;2023-05-28T04:14:38;15.10;;;9.80;;
10550;SDS011;5324;50.684;3.862;2023-05-28T04:17:05;17.43;;;10.27;;
10550;SDS011;5324;50.684;3.862;2023-05-28T04:19:31;21.67;;;10.17;;
10550;SDS011;5324;50.684;3.862;2023-05-28T04:21:57;15.77;;;10.50;;
10550;SDS011;5324;50.684;3.862;2023-05-28T04:24:23;19.00;;;10.10;;
10550;SDS011;5324;50.684;3.862;2023-05-28T04:26:49;23.50;;;10.47;;
10550;SDS011;5324;50.684;3.862;2023-05-28T04:29:16;15.30;;;9.50;;
10550;SDS011;5324;50.684;3.862;2023-05-28T04:31:42;16.77;;;10.10;;
10550;SDS011;5324;50.684;3.862;2023-05-28T04:34:08;17.07;;;10.03;;
10550;SDS011;5324;50.684;3.862;2023-05-28T04:36:34;21.73;;;9.67;;
10550;SDS011;5324;50.684;3.862;2023-05-28T04:39:01;15.90;;;9.47;;
10550;SDS011;5324;50.684;3.862;2023-05-28T04:41:30;18.57;;;10.47;;
10550;SDS011;5324;50.684;3.862;2023-05-28T04:43:56;15.90;;;10.53;;
10550;SDS011;5324;50.684;3.862;2023-05-28T04:46:23;17.17;;;11.07;;
10550;SDS011;5324;50.684;3.862;2023-05-28T04:48:50;17.97;;;10.50;;
10550;SDS011;5324;50.684;3.862;2023-05-28T04:51:16;17.97;;;9.67;;
10550;SDS011;5324;50.684;3.862;2023-05-28T04:53:43;18.10;;;10.87;;
10550;SDS011;5324;50.684;3.862;2023-05-28T04:56:09;22.27;;;10.67;;
10550;SDS011;5324;50.684;3.862;2023-05-28T04:58:35;16.67;;;10.50;;
10550;SDS011;5324;50.684;3.862;2023-05-28T05:01:01;19.83;;;10.30;;
10550;SDS011;5324;50.684;3.862;2023-05-28T05:03:29;18.80;;;10.67;;
10550;SDS011;5324;50.684;3.862;2023-05-28T05:05:56;17.63;;;10.27;;
10550;SDS011;5324;50.684;3.862;2023-05-28T05:08:22;13.90;;;9.17;;
10550;SDS011;5324;50.684;3.862;2023-05-28T05:10:48;18.47;;;10.60;;
10550;SDS011;5324;50.684;3.862;2023-05-28T05:13:14;24.13;;;10.60;;
10550;SDS011;5324;50.684;3.862;2023-05-28T05:15:40;20.33;;;10.20;;
10550;SDS011;5324;50.684;3.862;2023-05-28T05:18:06;18.87;;;10.60;;
10550;SDS011;5324;50.684;3.862;2023-05-28T05:20:32;16.97;;;11.10;;
10550;SDS011;5324;50.684;3.862;2023-05-28T05:22:58;23.73;;;12.10;;
10550;SDS011;5324;50.684;3.862;2023-05-28T05:25:24;17.40;;;10.23;;
10550;SDS011;5324;50.684;3.862;2023-05-28T05:27:50;21.37;;;11.67;;
10550;SDS011;5324;50.684;3.862;2023-05-28T05:30:16;17.17;;;9.97;;
10550;SDS011;5324;50.684;3.862;2023-05-28T05:32:42;20.37;;;10.17;;
10550;SDS011;5324;50.684;3.862;2023-05-28T05:35:08;21.60;;;10.20;;
10550;SDS011;5324;50.684;3.862;2023-05-28T05:37:34;18.40;;;10.20;;
10550;SDS011;5324;50.684;3.862;2023-05-28T05:40:01;21.73;;;11.40;;
10550;SDS011;5324;50.684;3.862;2023-05-28T05:42:30;15.47;;;10.07;;
10550;SDS011;5324;50.684;3.862;2023-05-28T05:44:56;24.20;;;11.17;;
10550;SDS011;5324;50.684;3.862;2023-05-28T05:47:22;17.73;;;10.37;;
10550;SDS011;5324;50.684;3.862;2023-05-28T05:49:48;18.57;;;10.20;;
10550;SDS011;5324;50.684;3.862;2023-05-28T05:52:14;20.43;;;9.90;;
10550;SDS011;5324;50.684;3.862;2023-05-28T05:54:40;18.30;;;10.33;;
10550;SDS011;5324;50.684;3.862;2023-05-28T05:57:06;19.20;;;10.10;;
10550;SDS011;5324;50.684;3.862;2023-05-28T05:59:32;17.17;;;10.07;;
10550;SDS011;5324;50.684;3.862;2023-05-28T06:01:58;17.73;;;9.80;;
10550;SDS011;5324;50.684;3.862;2023-05-28T06:04:25;21.13;;;10.03;;
10550;SDS011;5324;50.684;3.862;2023-05-28T06:06:56;15.30;;;9.07;;
10550;SDS011;5324;50.684;3.862;2023-05-28T06:09:23;23.63;;;9.77;;
10550;SDS011;5324;50.684;3.862;2023-05-28T06:11:49;16.17;;;8.77;;
10550;SDS011;5324;50.684;3.862;2023-05-28T06:14:15;15.83;;;9.30;;
10550;SDS011;5324;50.684;3.862;2023-05-28T06:16:41;15.23;;;9.17;;
10550;SDS011;5324;50.684;3.862;2023-05-28T06:19:07;19.47;;;9.37;;
10550;SDS011;5324;50.684;3.862;2023-05-28T06:21:33;16.70;;;9.37;;
10550;SDS011;5324;50.684;3.862;2023-05-28T06:24:00;17.67;;;10.83;;
10550;SDS011;5324;50.684;3.862;2023-05-28T06:26:26;17.43;;;9.77;;
10550;SDS011;5324;50.684;3.862;2023-05-28T06:28:54;17.20;;;10.10;;
10550;SDS011;5324;50.684;3.862;2023-05-28T06:31:20;17.07;;;10.67;;
10550;SDS011;5324;50.684;3.862;2023-05-28T06:33:46;18.37;;;10.37;;
10550;SDS011;5324;50.684;3.862;2023-05-28T06:36:12;15.77;;;9.33;;
10550;SDS011;5324;50.684;3.862;2023-05-28T06:38:38;17.77;;;9.33;;
10550;SDS011;5324;50.684;3.862;2023-05-28T06:41:04;16.13;;;9.63;;
10550;SDS011;5324;50.684;3.862;2023-05-28T06:43:30;16.13;;;8.77;;
10550;SDS011;5324;50.684;3.862;2023-05-28T06:45:56;17.50;;;9.80;;
10550;SDS011;5324;50.684;3.862;2023-05-28T06:48:22;17.83;;;9.18;;
10550;SDS011;5324;50.684;3.862;2023-05-28T06:50:48;18.23;;;9.90;;
10550;SDS011;5324;50.684;3.862;2023-05-28T06:53:14;18.63;;;8.85;;
10550;SDS011;5324;50.684;3.862;2023-05-28T06:55:41;18.33;;;10.10;;
10550;SDS011;5324;50.684;3.862;2023-05-28T06:58:06;15.13;;;8.70;;
10550;SDS011;5324;50.684;3.862;2023-05-28T07:00:32;16.90;;;8.90;;
10550;SDS011;5324;50.684;3.862;2023-05-28T07:02:59;17.83;;;10.20;;
10550;SDS011;5324;50.684;3.862;2023-05-28T07:05:25;18.77;;;9.43;;
10550;SDS011;5324;50.684;3.862;2023-05-28T07:07:51;17.10;;;9.73;;
10550;SDS011;5324;50.684;3.862;2023-05-28T07:10:17;18.73;;;9.98;;
10550;SDS011;5324;50.684;3.862;2023-05-28T07:12:43;16.30;;;9.20;;
10550;SDS011;5324;50.684;3.862;2023-05-28T07:15:09;13.07;;;8.68;;
10550;SDS011;5324;50.684;3.862;2023-05-28T07:17:35;16.25;;;9.23;;
10550;SDS011;5324;50.684;3.862;2023-05-28T07:20:01;21.88;;;8.85;;
10550;SDS011;5324;50.684;3.862;2023-05-28T07:22:29;14.45;;;8.43;;
10550;SDS011;5324;50.684;3.862;2023-05-28T07:24:55;16.38;;;8.52;;
10550;SDS011;5324;50.684;3.862;2023-05-28T07:27:21;14.30;;;8.30;;
10550;SDS011;5324;50.684;3.862;2023-05-28T07:29:47;14.02;;;8.50;;
10550;SDS011;5324;50.684;3.862;2023-05-28T07:32:13;12.68;;;7.80;;
10550;SDS011;5324;50.684;3.862;2023-05-28T07:34:39;13.13;;;7.40;;
10550;SDS011;5324;50.684;3.862;2023-05-28T07:37:06;14.07;;;7.13;;
10550;SDS011;5324;50.684;3.862;2023-05-28T07:39:32;14.90;;;7.80;;
10550;SDS011;5324;50.684;3.862;2023-05-28T07:41:58;14.10;;;7.03;;
10550;SDS011;5324;50.684;3.862;2023-05-28T07:44:24;14.38;;;6.63;;
10550;SDS011;5324;50.684;3.862;2023-05-28T07:46:50;12.00;;;6.78;;
10550;SDS011;5324;50.684;3.862;2023-05-28T07:49:16;14.30;;;7.00;;
10550;SDS011;5324;50.684;3.862;2023-05-28T07:51:42;10.45;;;6.70;;
10550;SDS011;5324;50.684;3.862;2023-05-28T07:54:08;12.50;;;6.45;;
10550;SDS011;5324;50.684;3.862;2023-05-28T07:56:35;14.35;;;6.20;;
10550;SDS011;5324;50.684;3.862;2023-05-28T07:59:04;9.27;;;6.05;;
10550;SDS011;5324;50.684;3.862;2023-05-28T08:01:30;16.30;;;5.75;;
10550;SDS011;5324;50.684;3.862;2023-05-28T08:03:56;9.60;;;5.88;;
10550;SDS011;5324;50.684;3.862;2023-05-28T08:06:22;11.18;;;6.13;;
10550;SDS011;5324;50.684;3.862;2023-05-28T08:08:48;14.25;;;5.95;;
10550;SDS011;5324;50.684;3.862;2023-05-28T08:11:14;11.63;;;5.72;;
10550;SDS011;5324;50.684;3.862;2023-05-28T08:13:40;13.35;;;6.18;;
10550;SDS011;5324;50.684;3.862;2023-05-28T08:16:06;13.82;;;5.60;;
10550;SDS011;5324;50.684;3.862;2023-05-28T08:18:35;9.43;;;5.30;;
10550;SDS011;5324;50.684;3.862;2023-05-28T08:21:02;9.65;;;5.30;;
10550;SDS011;5324;50.684;3.862;2023-05-28T08:23:28;10.07;;;5.60;;
10550;SDS011;5324;50.684;3.862;2023-05-28T08:25:55;9.15;;;5.00;;
10550;SDS011;5324;50.684;3.862;2023-05-28T08:28:22;10.05;;;4.88;;
10550;SDS011;5324;50.684;3.862;2023-05-28T08:30:48;9.90;;;4.78;;
10550;SDS011;5324;50.684;3.862;2023-05-28T08:33:15;10.02;;;5.40;;
10550;SDS011;5324;50.684;3.862;2023-05-28T08:35:41;6.90;;;5.22;;
10550;SDS011;5324;50.684;3.862;2023-05-28T08:38:07;9.45;;;5.35;;
10550;SDS011;5324;50.684;3.862;2023-05-28T08:40:36;10.13;;;5.03;;
10550;SDS011;5324;50.684;3.862;2023-05-28T08:43:05;8.60;;;4.53;;
10550;SDS011;5324;50.684;3.862;2023-05-28T08:45:30;12.50;;;5.35;;
10550;SDS011;5324;50.684;3.862;2023-05-28T08:47:57;10.18;;;4.80;;
10550;SDS011;5324;50.684;3.862;2023-05-28T08:50:23;11.45;;;4.60;;
10550;SDS011;5324;50.684;3.862;2023-05-28T08:52:49;11.35;;;4.43;;
10550;SDS011;5324;50.684;3.862;2023-05-28T08:55:16;10.25;;;4.78;;
10550;SDS011;5324;50.684;3.862;2023-05-28T08:57:42;8.98;;;4.47;;
10550;SDS011;5324;50.684;3.862;2023-05-28T09:00:11;12.35;;;4.80;;
10550;SDS011;5324;50.684;3.862;2023-05-28T09:02:38;7.65;;;4.32;;
10550;SDS011;5324;50.684;3.862;2023-05-28T09:05:05;7.30;;;4.38;;
10550;SDS011;5324;50.684;3.862;2023-05-28T09:07:31;9.85;;;4.57;;
10550;SDS011;5324;50.684;3.862;2023-05-28T09:10:01;8.93;;;4.28;;
10550;SDS011;5324;50.684;3.862;2023-05-28T09:12:28;9.88;;;4.65;;
10550;SDS011;5324;50.684;3.862;2023-05-28T09:14:54;7.00;;;3.72;;
10550;SDS011;5324;50.684;3.862;2023-05-28T09:19:58;9.02;;;4.32;;
10550;SDS011;5324;50.684;3.862;2023-05-28T09:22:26;7.88;;;4.15;;
10550;SDS011;5324;50.684;3.862;2023-05-28T09:24:52;6.25;;;3.85;;
10550;SDS011;5324;50.684;3.862;2023-05-28T09:27:19;8.98;;;4.60;;
10550;SDS011;5324;50.684;3.862;2023-05-28T09:29:47;10.65;;;4.28;;
10550;SDS011;5324;50.684;3.862;2023-05-28T09:32:17;6.82;;;3.92;;
10550;SDS011;5324;50.684;3.862;2023-05-28T09:34:44;7.43;;;4.32;;
10550;SDS011;5324;50.684;3.862;2023-05-28T09:37:10;7.70;;;4.20;;
10550;SDS011;5324;50.684;3.862;2023-05-28T09:39:36;6.03;;;3.60;;
10550;SDS011;5324;50.684;3.862;2023-05-28T09:42:03;8.40;;;4.05;;
10550;SDS011;5324;50.684;3.862;2023-05-28T09:44:34;7.95;;;3.53;;
10550;SDS011;5324;50.684;3.862;2023-05-28T09:47:00;7.97;;;4.10;;
10550;SDS011;5324;50.684;3.862;2023-05-28T09:49:29;6.45;;;3.67;;
10550;SDS011;5324;50.684;3.862;2023-05-28T09:51:58;6.25;;;3.75;;
10550;SDS011;5324;50.684;3.862;2023-05-28T09:54:29;7.60;;;4.05;;
10550;SDS011;5324;50.684;3.862;2023-05-28T09:56:57;7.43;;;3.97;;
10550;SDS011;5324;50.684;3.862;2023-05-28T09:59:24;8.98;;;4.45;;
10550;SDS011;5324;50.684;3.862;2023-05-28T10:04:21;7.10;;;4.18;;
10550;SDS011;5324;50.684;3.862;2023-05-28T10:06:47;7.32;;;3.85;;
10550;SDS011;5324;50.684;3.862;2023-05-28T10:09:16;6.75;;;3.22;;
10550;SDS011;5324;50.684;3.862;2023-05-28T10:11:44;7.47;;;4.18;;
10550;SDS011;5324;50.684;3.862;2023-05-28T10:14:11;8.50;;;4.43;;
10550;SDS011;5324;50.684;3.862;2023-05-28T10:16:37;7.50;;;4.68;;
10550;SDS011;5324;50.684;3.862;2023-05-28T10:19:03;8.95;;;4.35;;
10550;SDS011;5324;50.684;3.862;2023-05-28T10:21:30;8.43;;;4.07;;
10550;SDS011;5324;50.684;3.862;2023-05-28T10:23:56;6.35;;;3.90;;
10550;SDS011;5324;50.684;3.862;2023-05-28T10:26:23;8.60;;;4.18;;
10550;SDS011;5324;50.684;3.862;2023-05-28T10:28:53;6.05;;;4.07;;
10550;SDS011;5324;50.684;3.862;2023-05-28T10:31:21;7.43;;;3.95;;
10550;SDS011;5324;50.684;3.862;2023-05-28T10:33:47;6.90;;;4.50;;
10550;SDS011;5324;50.684;3.862;2023-05-28T10:36:14;7.95;;;4.15;;
10550;SDS011;5324;50.684;3.862;2023-05-28T10:38:43;7.07;;;4.18;;
10550;SDS011;5324;50.684;3.862;2023-05-28T10:41:10;7.72;;;4.63;;
10550;SDS011;5324;50.684;3.862;2023-05-28T10:43:42;12.55;;;4.78;;
10550;SDS011;5324;50.684;3.862;2023-05-28T10:46:10;7.55;;;4.38;;
10550;SDS011;5324;50.684;3.862;2023-05-28T10:48:37;8.10;;;4.18;;
10550;SDS011;5324;50.684;3.862;2023-05-28T10:51:04;11.07;;;5.05;;
10550;SDS011;5324;50.684;3.862;2023-05-28T10:53:30;8.60;;;4.25;;
10550;SDS011;5324;50.684;3.862;2023-05-28T10:55:56;7.85;;;3.83;;
10550;SDS011;5324;50.684;3.862;2023-05-28T11:00:49;8.20;;;4.43;;
10550;SDS011;5324;50.684;3.862;2023-05-28T11:03:15;8.73;;;4.40;;
10550;SDS011;5324;50.684;3.862;2023-05-28T11:05:41;9.27;;;4.55;;
10550;SDS011;5324;50.684;3.862;2023-05-28T11:08:07;8.13;;;4.30;;
10550;SDS011;5324;50.684;3.862;2023-05-28T11:10:33;6.55;;;3.95;;
10550;SDS011;5324;50.684;3.862;2023-05-28T11:13:00;5.88;;;4.07;;
10550;SDS011;5324;50.684;3.862;2023-05-28T11:15:27;9.70;;;4.60;;
10550;SDS011;5324;50.684;3.862;2023-05-28T11:17:53;8.77;;;4.70;;
10550;SDS011;5324;50.684;3.862;2023-05-28T11:20:23;8.88;;;4.55;;
10550;SDS011;5324;50.684;3.862;2023-05-28T11:22:50;10.05;;;4.78;;
10550;SDS011;5324;50.684;3.862;2023-05-28T11:25:16;11.25;;;4.20;;
10550;SDS011;5324;50.684;3.862;2023-05-28T11:27:42;8.75;;;4.40;;
10550;SDS011;5324;50.684;3.862;2023-05-28T11:30:11;8.18;;;4.50;;
10550;SDS011;5324;50.684;3.862;2023-05-28T11:32:38;8.63;;;4.60;;
10550;SDS011;5324;50.684;3.862;2023-05-28T11:35:04;7.22;;;4.63;;
10550;SDS011;5324;50.684;3.862;2023-05-28T11:37:31;8.35;;;4.45;;
10550;SDS011;5324;50.684;3.862;2023-05-28T11:39:58;7.43;;;4.18;;
10550;SDS011;5324;50.684;3.862;2023-05-28T11:44:52;8.23;;;4.32;;
10550;SDS011;5324;50.684;3.862;2023-05-28T11:47:19;8.90;;;4.90;;
10550;SDS011;5324;50.684;3.862;2023-05-28T11:49:46;7.75;;;4.60;;
10550;SDS011;5324;50.684;3.862;2023-05-28T11:52:16;7.72;;;4.70;;
10550;SDS011;5324;50.684;3.862;2023-05-28T11:54:43;7.35;;;4.32;;
10550;SDS011;5324;50.684;3.862;2023-05-28T11:57:10;8.60;;;4.55;;
10550;SDS011;5324;50.684;3.862;2023-05-28T11:59:36;10.40;;;4.72;;
10550;SDS011;5324;50.684;3.862;2023-05-28T12:02:09;7.55;;;4.15;;
10550;SDS011;5324;50.684;3.862;2023-05-28T12:04:36;7.60;;;4.63;;
10550;SDS011;5324;50.684;3.862;2023-05-28T12:07:02;7.43;;;4.10;;
10550;SDS011;5324;50.684;3.862;2023-05-28T12:09:28;7.82;;;4.55;;
10550;SDS011;5324;50.684;3.862;2023-05-28T12:12:10;7.78;;;4.78;;
10550;SDS011;5324;50.684;3.862;2023-05-28T12:14:36;9.68;;;5.00;;
10550;SDS011;5324;50.684;3.862;2023-05-28T12:17:06;8.13;;;4.20;;
10550;SDS011;5324;50.684;3.862;2023-05-28T12:19:37;7.95;;;4.40;;
10550;SDS011;5324;50.684;3.862;2023-05-28T12:22:04;7.57;;;4.45;;
10550;SDS011;5324;50.684;3.862;2023-05-28T12:24:30;7.93;;;4.47;;
10550;SDS011;5324;50.684;3.862;2023-05-28T12:26:57;8.75;;;4.45;;
10550;SDS011;5324;50.684;3.862;2023-05-28T12:29:23;9.15;;;5.22;;
10550;SDS011;5324;50.684;3.862;2023-05-28T12:31:58;7.97;;;4.80;;
10550;SDS011;5324;50.684;3.862;2023-05-28T12:34:24;9.05;;;4.20;;
10550;SDS011;5324;50.684;3.862;2023-05-28T12:36:50;8.75;;;4.15;;
10550;SDS011;5324;50.684;3.862;2023-05-28T12:39:16;13.60;;;5.05;;
10550;SDS011;5324;50.684;3.862;2023-05-28T12:41:42;5.30;;;3.85;;
10550;SDS011;5324;50.684;3.862;2023-05-28T12:44:08;8.20;;;4.55;;
10550;SDS011;5324;50.684;3.862;2023-05-28T12:46:34;12.80;;;4.95;;
10550;SDS011;5324;50.684;3.862;2023-05-28T12:49:00;11.65;;;4.80;;
10550;SDS011;5324;50.684;3.862;2023-05-28T12:51:26;7.90;;;5.07;;
10550;SDS011;5324;50.684;3.862;2023-05-28T12:53:52;8.00;;;4.47;;
10550;SDS011;5324;50.684;3.862;2023-05-28T12:56:18;9.65;;;4.47;;
10550;SDS011;5324;50.684;3.862;2023-05-28T12:58:44;6.95;;;4.63;;
10550;SDS011;5324;50.684;3.862;2023-05-28T13:01:10;9.93;;;4.60;;
10550;SDS011;5324;50.684;3.862;2023-05-28T13:03:37;7.43;;;4.60;;
10550;SDS011;5324;50.684;3.862;2023-05-28T13:06:03;7.28;;;4.32;;
10550;SDS011;5324;50.684;3.862;2023-05-28T13:08:30;8.40;;;4.45;;
10550;SDS011;5324;50.684;3.862;2023-05-28T13:10:56;9.93;;;4.93;;
10550;SDS011;5324;50.684;3.862;2023-05-28T13:13:22;9.20;;;4.63;;
10550;SDS011;5324;50.684;3.862;2023-05-28T13:15:48;9.07;;;4.80;;
10550;SDS011;5324;50.684;3.862;2023-05-28T13:18:14;8.98;;;4.68;;
10550;SDS011;5324;50.684;3.862;2023-05-28T13:20:40;13.15;;;4.68;;
10550;SDS011;5324;50.684;3.862;2023-05-28T13:23:06;7.47;;;4.20;;
10550;SDS011;5324;50.684;3.862;2023-05-28T13:25:32;7.55;;;4.30;;
10550;SDS011;5324;50.684;3.862;2023-05-28T13:27:59;9.07;;;4.25;;
10550;SDS011;5324;50.684;3.862;2023-05-28T13:30:25;8.10;;;4.82;;
10550;SDS011;5324;50.684;3.862;2023-05-28T13:32:51;6.75;;;4.30;;
10550;SDS011;5324;50.684;3.862;2023-05-28T13:35:17;7.07;;;3.92;;
10550;SDS011;5324;50.684;3.862;2023-05-28T13:37:45;6.20;;;4.15;;
10550;SDS011;5324;50.684;3.862;2023-05-28T13:40:11;4.85;;;3.42;;
10550;SDS011;5324;50.684;3.862;2023-05-28T13:42:38;8.27;;;4.30;;
10550;SDS011;5324;50.684;3.862;2023-05-28T13:45:05;7.50;;;4.55;;
10550;SDS011;5324;50.684;3.862;2023-05-28T13:47:31;9.85;;;4.57;;
10550;SDS011;5324;50.684;3.862;2023-05-28T13:49:57;6.82;;;4.03;;
10550;SDS011;5324;50.684;3.862;2023-05-28T13:52:24;8.32;;;4.38;;
10550;SDS011;5324;50.684;3.862;2023-05-28T13:54:50;7.32;;;3.90;;
10550;SDS011;5324;50.684;3.862;2023-05-28T13:57:16;11.63;;;4.22;;
10550;SDS011;5324;50.684;3.862;2023-05-28T13:59:45;7.68;;;4.35;;
10550;SDS011;5324;50.684;3.862;2023-05-28T14:02:16;7.35;;;4.57;;
10550;SDS011;5324;50.684;3.862;2023-05-28T14:04:59;7.95;;;4.30;;
10550;SDS011;5324;50.684;3.862;2023-05-28T14:07:34;7.30;;;4.38;;
10550;SDS011;5324;50.684;3.862;2023-05-28T14:10:14;9.05;;;4.07;;
10550;SDS011;5324;50.684;3.862;2023-05-28T14:12:54;7.40;;;4.00;;
10550;SDS011;5324;50.684;3.862;2023-05-28T14:15:31;5.93;;;4.22;;
10550;SDS011;5324;50.684;3.862;2023-05-28T14:18:10;5.55;;;3.50;;
10550;SDS011;5324;50.684;3.862;2023-05-28T14:20:49;8.18;;;4.38;;
10550;SDS011;5324;50.684;3.862;2023-05-28T14:23:29;12.02;;;4.53;;
10550;SDS011;5324;50.684;3.862;2023-05-28T14:26:20;8.27;;;4.95;;
10550;SDS011;5324;50.684;3.862;2023-05-28T14:29:05;7.75;;;4.32;;
10550;SDS011;5324;50.684;3.862;2023-05-28T14:31:45;8.85;;;4.85;;
10550;SDS011;5324;50.684;3.862;2023-05-28T14:34:27;7.43;;;4.50;;
10550;SDS011;5324;50.684;3.862;2023-05-28T14:37:13;5.82;;;4.18;;
10550;SDS011;5324;50.684;3.862;2023-05-28T14:39:56;5.90;;;4.28;;
10550;SDS011;5324;50.684;3.862;2023-05-28T14:42:37;8.70;;;3.97;;
10550;SDS011;5324;50.684;3.862;2023-05-28T14:45:23;5.20;;;3.78;;
10550;SDS011;5324;50.684;3.862;2023-05-28T14:47:59;6.82;;;3.92;;
10550;SDS011;5324;50.684;3.862;2023-05-28T14:50:40;6.70;;;4.38;;
10550;SDS011;5324;50.684;3.862;2023-05-28T14:53:17;6.82;;;4.03;;
10550;SDS011;5324;50.684;3.862;2023-05-28T14:56:01;7.63;;;4.22;;
10550;SDS011;5324;50.684;3.862;2023-05-28T14:58:50;6.80;;;4.18;;
10550;SDS011;5324;50.684;3.862;2023-05-28T15:01:29;8.80;;;3.97;;